sensor_id;sensor_type;location;lat;lon;timestamp;pressure;altitude;pressure_sealevel;temperature;humidity
71567;BME280;59403;47.456;19.120;2023-08-17T00:00:39;100529.75;;;21.07;100.00
71567;BME280;59403;47.456;19.120;2023-08-17T00:03:06;100517.63;;;20.98;100.00
71567;BME280;59403;47.456;19.120;2023-08-17T00:05:33;100527.97;;;20.95;100.00
71567;BME280;59403;47.456;19.120;2023-08-17T00:08:02;100526.53;;;20.92;100.00
71567;BME280;59403;47.456;19.120;2023-08-17T00:10:29;100524.06;;;20.91;100.00
71567;BME280;59403;47.456;19.120;2023-08-17T00:12:56;100518.06;;;20.89;100.00
71567;BME280;59403;47.456;19.120;2023-08-17T00:15:23;100523.22;;;20.90;100.00
71567;BME280;59403;47.456;19.120;2023-08-17T00:17:50;100523.84;;;20.92;100.00
71567;BME280;59403;47.456;19.120;2023-08-17T00:20:17;100516.97;;;20.96;100.00
71567;BME280;59403;47.456;19.120;2023-08-17T00:22:44;100516.75;;;20.98;100.00
71567;BME280;59403;47.456;19.120;2023-08-17T00:25:12;100515.16;;;20.90;100.00
71567;BME280;59403;47.456;19.120;2023-08-17T00:27:39;100514.06;;;20.98;100.00
71567;BME280;59403;47.456;19.120;2023-08-17T00:30:07;100513.62;;;21.01;100.00
71567;BME280;59403;47.456;19.120;2023-08-17T00:32:34;100502.22;;;21.05;100.00
71567;BME280;59403;47.456;19.120;2023-08-17T00:35:00;100517.44;;;20.93;100.00
71567;BME280;59403;47.456;19.120;2023-08-17T00:37:28;100514.97;;;20.92;100.00
71567;BME280;59403;47.456;19.120;2023-08-17T00:39:55;100510.16;;;21.00;100.00
71567;BME280;59403;47.456;19.120;2023-08-17T00:42:24;100504.31;;;21.03;100.00
71567;BME280;59403;47.456;19.120;2023-08-17T00:44:50;100514.84;;;21.05;100.00
71567;BME280;59403;47.456;19.120;2023-08-17T00:47:17;100513.38;;;21.09;100.00
71567;BME280;59403;47.456;19.120;2023-08-17T00:49:44;100513.59;;;21.07;100.00
71567;BME280;59403;47.456;19.120;2023-08-17T00:52:12;100516.88;;;21.09;100.00
71567;BME280;59403;47.456;19.120;2023-08-17T00:54:39;100513.59;;;21.07;100.00
71567;BME280;59403;47.456;19.120;2023-08-17T00:57:12;100523.75;;;21.05;100.00
71567;BME280;59403;47.456;19.120;2023-08-17T00:59:41;100520.47;;;21.03;100.00
71567;BME280;59403;47.456;19.120;2023-08-17T01:04:52;100525.63;;;21.05;100.00
71567;BME280;59403;47.456;19.120;2023-08-17T01:07:20;100518.22;;;21.00;100.00
71567;BME280;59403;47.456;19.120;2023-08-17T01:09:47;100516.97;;;20.96;100.00
71567;BME280;59403;47.456;19.120;2023-08-17T01:12:22;100512.00;;;21.00;100.00
71567;BME280;59403;47.456;19.120;2023-08-17T01:14:59;100515.16;;;20.90;100.00
71567;BME280;59403;47.456;19.120;2023-08-17T01:17:30;100512.91;;;20.87;100.00
71567;BME280;59403;47.456;19.120;2023-08-17T01:19:58;100513.75;;;20.88;100.00
71567;BME280;59403;47.456;19.120;2023-08-17T01:22:28;100525.34;;;20.88;100.00
71567;BME280;59403;47.456;19.120;2023-08-17T01:24:59;100525.13;;;20.90;100.00
71567;BME280;59403;47.456;19.120;2023-08-17T01:27:39;100525.34;;;20.88;100.00
71567;BME280;59403;47.456;19.120;2023-08-17T01:30:08;100532.59;;;20.88;100.00
71567;BME280;59403;47.456;19.120;2023-08-17T01:32:40;100527.38;;;20.93;100.00
71567;BME280;59403;47.456;19.120;2023-08-17T01:35:13;100521.81;;;20.88;100.00
71567;BME280;59403;47.456;19.120;2023-08-17T01:37:43;100525.91;;;20.90;100.00
71567;BME280;59403;47.456;19.120;2023-08-17T01:40:12;100533.19;;;20.90;100.00
71567;BME280;59403;47.456;19.120;2023-08-17T01:42:41;100523.22;;;20.90;100.00
71567;BME280;59403;47.456;19.120;2023-08-17T01:45:09;100520.34;;;20.92;100.00
71567;BME280;59403;47.456;19.120;2023-08-17T01:47:37;100517.25;;;20.88;100.00
71567;BME280;59403;47.456;19.120;2023-08-17T01:50:05;100524.75;;;20.86;100.00
71567;BME280;59403;47.456;19.120;2023-08-17T01:52:32;100523.22;;;20.90;100.00
71567;BME280;59403;47.456;19.120;2023-08-17T01:55:00;100515.75;;;20.92;100.00
71567;BME280;59403;47.456;19.120;2023-08-17T01:57:28;100507.47;;;20.94;100.00
71567;BME280;59403;47.456;19.120;2023-08-17T01:59:55;100517.06;;;20.83;100.00
71567;BME280;59403;47.456;19.120;2023-08-17T02:02:22;100512.59;;;20.77;100.00
71567;BME280;59403;47.456;19.120;2023-08-17T02:04:49;100523.91;;;20.86;100.00
71567;BME280;59403;47.456;19.120;2023-08-17T02:07:16;100525.13;;;20.90;100.00
71567;BME280;59403;47.456;19.120;2023-08-17T02:09:43;100529.06;;;20.87;100.00
71567;BME280;59403;47.456;19.120;2023-08-17T02:12:10;100532.59;;;20.88;100.00
71567;BME280;59403;47.456;19.120;2023-08-17T02:14:38;100532.19;;;20.84;100.00
71567;BME280;59403;47.456;19.120;2023-08-17T02:17:05;100525.81;;;20.79;100.00
71567;BME280;59403;47.456;19.120;2023-08-17T02:19:33;100527.69;;;20.78;100.00
71567;BME280;59403;47.456;19.120;2023-08-17T02:22:01;100520.66;;;20.77;100.00
71567;BME280;59403;47.456;19.120;2023-08-17T02:24:28;100522.06;;;20.80;100.00
71567;BME280;59403;47.456;19.120;2023-08-17T02:26:55;100519.59;;;20.78;100.00
71567;BME280;59403;47.456;19.120;2023-08-17T02:29:22;100507.66;;;20.74;100.00
71567;BME280;59403;47.456;19.120;2023-08-17T02:31:50;100501.22;;;20.75;100.00
71567;BME280;59403;47.456;19.120;2023-08-17T02:34:17;100509.50;;;20.74;100.00
71567;BME280;59403;47.456;19.120;2023-08-17T02:36:44;100498.75;;;20.74;100.00
71567;BME280;59403;47.456;19.120;2023-08-17T02:39:11;100514.06;;;20.73;100.00
71567;BME280;59403;47.456;19.120;2023-08-17T02:41:38;100515.34;;;20.71;100.00
71567;BME280;59403;47.456;19.120;2023-08-17T02:44:06;100504.34;;;20.72;100.00
71567;BME280;59403;47.456;19.120;2023-08-17T02:46:33;100517.44;;;20.69;100.00
71567;BME280;59403;47.456;19.120;2023-08-17T02:49:01;100509.13;;;20.70;100.00
71567;BME280;59403;47.456;19.120;2023-08-17T02:51:28;100514.06;;;20.73;100.00
71567;BME280;59403;47.456;19.120;2023-08-17T02:53:55;100510.34;;;20.74;100.00
71567;BME280;59403;47.456;19.120;2023-08-17T02:56:22;100512.88;;;20.69;100.00
71567;BME280;59403;47.456;19.120;2023-08-17T02:58:49;100518.91;;;20.65;100.00
71567;BME280;59403;47.456;19.120;2023-08-17T03:01:16;100512.75;;;20.58;100.00
71567;BME280;59403;47.456;19.120;2023-08-17T03:03:43;100503.66;;;20.52;100.00
71567;BME280;59403;47.456;19.120;2023-08-17T03:06:11;100504.06;;;20.56;100.00
71567;BME280;59403;47.456;19.120;2023-08-17T03:08:38;100505.94;;;20.55;100.00
71567;BME280;59403;47.456;19.120;2023-08-17T03:11:05;100499.06;;;20.59;100.00
71567;BME280;59403;47.456;19.120;2023-08-17T03:13:35;100502.19;;;20.56;100.00
71567;BME280;59403;47.456;19.120;2023-08-17T03:16:02;100487.09;;;20.55;100.00
71567;BME280;59403;47.456;19.120;2023-08-17T03:18:29;100489.13;;;20.60;100.00
71567;BME280;59403;47.456;19.120;2023-08-17T03:20:56;100489.97;;;20.60;100.00
71567;BME280;59403;47.456;19.120;2023-08-17T03:23:24;100486.59;;;20.65;100.00
71567;BME280;59403;47.456;19.120;2023-08-17T03:25:52;100479.34;;;20.65;100.00
71567;BME280;59403;47.456;19.120;2023-08-17T03:28:18;100485.38;;;20.61;100.00
71567;BME280;59403;47.456;19.120;2023-08-17T03:30:45;100480.44;;;20.58;100.00
71567;BME280;59403;47.456;19.120;2023-08-17T03:33:13;100485.44;;;20.54;100.00
71567;BME280;59403;47.456;19.120;2023-08-17T03:35:39;100490.22;;;20.52;100.00
71567;BME280;59403;47.456;19.120;2023-08-17T03:38:06;100487.34;;;20.54;100.00
71567;BME280;59403;47.456;19.120;2023-08-17T03:40:35;100492.50;;;20.55;100.00
71567;BME280;59403;47.456;19.120;2023-08-17T03:43:02;100492.72;;;20.54;100.00
71567;BME280;59403;47.456;19.120;2023-08-17T03:45:29;100487.91;;;20.56;100.00
71567;BME280;59403;47.456;19.120;2023-08-17T03:47:57;100495.19;;;20.55;100.00
71567;BME280;59403;47.456;19.120;2023-08-17T03:50:26;100480.50;;;20.51;100.00
71567;BME280;59403;47.456;19.120;2023-08-17T03:52:53;100489.66;;;20.44;100.00
71567;BME280;59403;47.456;19.120;2023-08-17T03:55:20;100493.41;;;20.43;100.00
71567;BME280;59403;47.456;19.120;2023-08-17T03:57:48;100502.69;;;20.47;100.00
71567;BME280;59403;47.456;19.120;2023-08-17T04:00:15;100493.19;;;20.44;100.00
71567;BME280;59403;47.456;19.120;2023-08-17T04:02:43;100492.56;;;20.42;100.00
71567;BME280;59403;47.456;19.120;2023-08-17T04:05:10;100503.72;;;20.46;100.00
71567;BME280;59403;47.456;19.120;2023-08-17T04:07:37;100504.56;;;20.46;100.00
71567;BME280;59403;47.456;19.120;2023-08-17T04:10:06;100504.56;;;20.46;100.00
71567;BME280;59403;47.456;19.120;2023-08-17T04:12:33;100504.34;;;20.48;100.00
71567;BME280;59403;47.456;19.120;2023-08-17T04:15:01;100504.94;;;20.50;100.00
71567;BME280;59403;47.456;19.120;2023-08-17T04:17:28;100501.81;;;20.53;100.00
71567;BME280;59403;47.456;19.120;2023-08-17T04:19:56;100503.09;;;20.50;100.00
71567;BME280;59403;47.456;19.120;2023-08-17T04:22:24;100503.66;;;20.52;100.00
71567;BME280;59403;47.456;19.120;2023-08-17T04:24:51;100507.19;;;20.53;100.00
71567;BME280;59403;47.456;19.120;2023-08-17T04:27:17;100509.88;;;20.53;100.00
71567;BME280;59403;47.456;19.120;2023-08-17T04:29:44;100512.53;;;20.59;100.00
71567;BME280;59403;47.456;19.120;2023-08-17T04:32:15;100510.44;;;20.61;100.00
71567;BME280;59403;47.456;19.120;2023-08-17T04:34:42;100514.34;;;20.65;100.00
71567;BME280;59403;47.456;19.120;2023-08-17T04:37:10;100517.66;;;20.67;100.00
71567;BME280;59403;47.456;19.120;2023-08-17T04:39:37;100510.38;;;20.68;100.00
71567;BME280;59403;47.456;19.120;2023-08-17T04:42:04;100511.44;;;20.67;100.00
71567;BME280;59403;47.456;19.120;2023-08-17T04:44:32;100520.12;;;20.69;100.00
71567;BME280;59403;47.456;19.120;2023-08-17T04:46:59;100519.91;;;20.70;100.00
71567;BME280;59403;47.456;19.120;2023-08-17T04:49:27;100529.56;;;20.78;100.00
71567;BME280;59403;47.456;19.120;2023-08-17T04:52:03;100530.66;;;20.70;100.00
71567;BME280;59403;47.456;19.120;2023-08-17T04:54:30;100532.03;;;20.79;100.00
71567;BME280;59403;47.456;19.120;2023-08-17T04:56:57;100524.34;;;20.83;100.00
71567;BME280;59403;47.456;19.120;2023-08-17T04:59:24;100527.81;;;20.90;100.00
71567;BME280;59403;47.456;19.120;2023-08-17T05:01:51;100524.81;;;20.98;100.00
71567;BME280;59403;47.456;19.120;2023-08-17T05:07:52;100507.38;;;21.07;100.00
71567;BME280;59403;47.456;19.120;2023-08-17T05:10:21;100509.13;;;21.19;100.00
71567;BME280;59403;47.456;19.120;2023-08-17T05:12:56;100511.66;;;21.32;100.00
71567;BME280;59403;47.456;19.120;2023-08-17T05:15:55;100514.38;;;21.51;100.00
71567;BME280;59403;47.456;19.120;2023-08-17T05:18:59;100520.50;;;21.58;100.00
71567;BME280;59403;47.456;19.120;2023-08-17T05:21:12;100522.22;;;21.88;100.00
71567;BME280;59403;47.456;19.120;2023-08-17T05:23:41;100522.66;;;22.03;100.00
71567;BME280;59403;47.456;19.120;2023-08-17T05:26:08;100527.91;;;22.58;100.00
71567;BME280;59403;47.456;19.120;2023-08-17T05:28:35;100519.69;;;22.64;100.00
71567;BME280;59403;47.456;19.120;2023-08-17T05:31:05;100528.56;;;22.53;100.00
71567;BME280;59403;47.456;19.120;2023-08-17T05:33:32;100517.72;;;22.30;100.00
71567;BME280;59403;47.456;19.120;2023-08-17T05:35:59;100515.59;;;22.20;100.00
71567;BME280;59403;47.456;19.120;2023-08-17T05:38:27;100518.59;;;22.12;100.00
71567;BME280;59403;47.456;19.120;2023-08-17T05:40:58;100517.91;;;22.17;100.00
71567;BME280;59403;47.456;19.120;2023-08-17T05:43:27;100528.31;;;22.43;100.00
71567;BME280;59403;47.456;19.120;2023-08-17T05:45:54;100516.34;;;22.50;100.00
71567;BME280;59403;47.456;19.120;2023-08-17T05:48:23;100510.72;;;22.52;100.00
71567;BME280;59403;47.456;19.120;2023-08-17T05:50:50;100521.25;;;22.83;100.00
71567;BME280;59403;47.456;19.120;2023-08-17T05:53:17;100521.63;;;23.10;100.00
71567;BME280;59403;47.456;19.120;2023-08-17T05:55:45;100520.09;;;23.48;100.00
71567;BME280;59403;47.456;19.120;2023-08-17T05:58:14;100524.28;;;23.68;100.00
71567;BME280;59403;47.456;19.120;2023-08-17T06:00:41;100526.59;;;23.76;100.00
71567;BME280;59403;47.456;19.120;2023-08-17T06:03:08;100513.81;;;23.71;100.00
71567;BME280;59403;47.456;19.120;2023-08-17T06:05:35;100512.81;;;23.49;100.00
71567;BME280;59403;47.456;19.120;2023-08-17T06:08:06;100503.78;;;23.43;100.00
71567;BME280;59403;47.456;19.120;2023-08-17T06:10:37;100515.63;;;23.19;100.00
71567;BME280;59403;47.456;19.120;2023-08-17T06:13:07;100516.47;;;22.97;100.00
71567;BME280;59403;47.456;19.120;2023-08-17T06:15:36;100504.59;;;22.86;100.00
71567;BME280;59403;47.456;19.120;2023-08-17T06:18:05;100511.87;;;22.74;100.00
71567;BME280;59403;47.456;19.120;2023-08-17T06:20:38;100507.03;;;22.65;100.00
71567;BME280;59403;47.456;19.120;2023-08-17T06:23:06;100504.75;;;22.50;100.00
71567;BME280;59403;47.456;19.120;2023-08-17T06:25:56;100505.09;;;22.53;100.00
71567;BME280;59403;47.456;19.120;2023-08-17T06:28:28;100494.81;;;22.62;100.00
71567;BME280;59403;47.456;19.120;2023-08-17T06:30:57;100505.50;;;22.80;100.00
71567;BME280;59403;47.456;19.120;2023-08-17T06:33:26;100504.34;;;22.99;100.00
71567;BME280;59403;47.456;19.120;2023-08-17T06:35:54;100500.59;;;23.46;100.00
71567;BME280;59403;47.456;19.120;2023-08-17T06:38:21;100493.66;;;23.50;100.00
71567;BME280;59403;47.456;19.120;2023-08-17T06:40:48;100482.25;;;23.37;100.00
71567;BME280;59403;47.456;19.120;2023-08-17T06:43:15;100485.09;;;23.30;100.00
71567;BME280;59403;47.456;19.120;2023-08-17T06:45:42;100482.50;;;23.24;100.00
71567;BME280;59403;47.456;19.120;2023-08-17T06:48:10;100480.41;;;23.14;98.07
71567;BME280;59403;47.456;19.120;2023-08-17T06:50:37;100481.19;;;23.15;100.00
71567;BME280;59403;47.456;19.120;2023-08-17T06:53:04;100490.25;;;23.09;100.00
71567;BME280;59403;47.456;19.120;2023-08-17T06:55:31;100500.72;;;23.05;100.00
71567;BME280;59403;47.456;19.120;2023-08-17T06:57:58;100506.56;;;23.02;100.00
71567;BME280;59403;47.456;19.120;2023-08-17T07:00:25;100515.28;;;23.04;100.00
71567;BME280;59403;47.456;19.120;2023-08-17T07:02:52;100515.50;;;23.03;100.00
71567;BME280;59403;47.456;19.120;2023-08-17T07:05:20;100512.56;;;23.04;100.00
71567;BME280;59403;47.456;19.120;2023-08-17T07:07:47;100511.63;;;22.99;100.00
71567;BME280;59403;47.456;19.120;2023-08-17T07:10:14;100504.81;;;22.96;100.00
71567;BME280;59403;47.456;19.120;2023-08-17T07:12:41;100507.87;;;23.00;100.00
71567;BME280;59403;47.456;19.120;2023-08-17T07:15:08;100507.87;;;23.00;100.00
71567;BME280;59403;47.456;19.120;2023-08-17T07:17:35;100504.13;;;22.89;100.00
71567;BME280;59403;47.456;19.120;2023-08-17T07:20:03;100499.78;;;23.00;100.00
71567;BME280;59403;47.456;19.120;2023-08-17T07:22:34;100498.47;;;23.02;100.00
71567;BME280;59403;47.456;19.120;2023-08-17T07:25:01;100501.31;;;23.07;100.00
71567;BME280;59403;47.456;19.120;2023-08-17T07:27:29;100516.81;;;23.12;100.00
71567;BME280;59403;47.456;19.120;2023-08-17T07:29:56;100506.59;;;23.14;100.00
71567;BME280;59403;47.456;19.120;2023-08-17T07:32:22;100510.22;;;23.19;100.00
71567;BME280;59403;47.456;19.120;2023-08-17T07:34:50;100506.56;;;23.25;100.00
71567;BME280;59403;47.456;19.120;2023-08-17T07:37:17;100516.47;;;23.31;100.00
71567;BME280;59403;47.456;19.120;2023-08-17T07:39:45;100514.47;;;23.38;100.00
71567;BME280;59403;47.456;19.120;2023-08-17T07:42:12;100518.69;;;23.46;98.07
71567;BME280;59403;47.456;19.120;2023-08-17T07:44:39;100513.03;;;23.47;99.33
71567;BME280;59403;47.456;19.120;2023-08-17T07:47:07;100516.31;;;23.61;98.04
71567;BME280;59403;47.456;19.120;2023-08-17T07:49:34;100517.34;;;23.72;98.27
71567;BME280;59403;47.456;19.120;2023-08-17T07:52:01;100510.81;;;23.96;95.89
71567;BME280;59403;47.456;19.120;2023-08-17T07:54:28;100513.72;;;24.50;93.77
71567;BME280;59403;47.456;19.120;2023-08-17T07:56:56;100506.19;;;25.02;90.90
71567;BME280;59403;47.456;19.120;2023-08-17T07:59:23;100506.44;;;25.55;87.99
71567;BME280;59403;47.456;19.120;2023-08-17T08:01:50;100507.31;;;25.83;85.71
71567;BME280;59403;47.456;19.120;2023-08-17T08:04:18;100507.16;;;26.16;83.99
71567;BME280;59403;47.456;19.120;2023-08-17T08:06:46;100505.59;;;25.98;78.40
71567;BME280;59403;47.456;19.120;2023-08-17T08:09:13;100506.59;;;26.14;78.12
71567;BME280;59403;47.456;19.120;2023-08-17T08:11:41;100503.09;;;26.13;77.50
71567;BME280;59403;47.456;19.120;2023-08-17T08:14:12;100506.31;;;25.67;79.26
71567;BME280;59403;47.456;19.120;2023-08-17T08:16:44;100506.88;;;25.47;81.99
71567;BME280;59403;47.456;19.120;2023-08-17T08:25:51;100506.88;;;25.47;79.67
71567;BME280;59403;47.456;19.120;2023-08-17T08:28:19;100505.75;;;25.65;78.89
71567;BME280;59403;47.456;19.120;2023-08-17T08:30:47;100504.53;;;25.99;80.20
71567;BME280;59403;47.456;19.120;2023-08-17T08:33:14;100498.84;;;26.27;79.88
71567;BME280;59403;47.456;19.120;2023-08-17T08:35:47;100504.84;;;26.29;79.84
71567;BME280;59403;47.456;19.120;2023-08-17T08:38:14;100494.25;;;26.28;78.10
71567;BME280;59403;47.456;19.120;2023-08-17T08:40:42;100496.25;;;25.89;78.72
71567;BME280;59403;47.456;19.120;2023-08-17T08:43:10;100495.34;;;25.57;79.68
71567;BME280;59403;47.456;19.120;2023-08-17T08:45:38;100504.16;;;25.47;81.57
71567;BME280;59403;47.456;19.120;2023-08-17T08:48:11;100504.25;;;25.36;83.66
71567;BME280;59403;47.456;19.120;2023-08-17T08:50:40;100501.41;;;25.26;80.07
71567;BME280;59403;47.456;19.120;2023-08-17T08:53:13;100516.69;;;25.15;80.34
71567;BME280;59403;47.456;19.120;2023-08-17T08:55:47;100505.78;;;25.10;80.98
71567;BME280;59403;47.456;19.120;2023-08-17T08:58:19;100502.75;;;25.07;80.56
71567;BME280;59403;47.456;19.120;2023-08-17T09:00:46;100510.81;;;25.02;80.17
71567;BME280;59403;47.456;19.120;2023-08-17T09:03:17;100507.59;;;25.05;80.47
71567;BME280;59403;47.456;19.120;2023-08-17T09:05:49;100510.31;;;25.05;79.57
71567;BME280;59403;47.456;19.120;2023-08-17T09:08:20;100509.28;;;25.11;82.09
71567;BME280;59403;47.456;19.120;2023-08-17T09:10:49;100502.44;;;25.03;83.34
71567;BME280;59403;47.456;19.120;2023-08-17T09:13:16;100499.13;;;25.01;83.42
71567;BME280;59403;47.456;19.120;2023-08-17T09:15:43;100498.88;;;25.03;83.04
71567;BME280;59403;47.456;19.120;2023-08-17T09:18:10;100495.47;;;24.74;87.12
71567;BME280;59403;47.456;19.120;2023-08-17T09:20:39;100494.56;;;24.85;86.46
71567;BME280;59403;47.456;19.120;2023-08-17T09:23:11;100492.31;;;24.99;86.12
71567;BME280;59403;47.456;19.120;2023-08-17T09:25:40;100483.84;;;25.12;86.04
71567;BME280;59403;47.456;19.120;2023-08-17T09:28:08;100483.78;;;25.28;85.43
71567;BME280;59403;47.456;19.120;2023-08-17T09:30:54;100484.78;;;25.39;84.21
71567;BME280;59403;47.456;19.120;2023-08-17T09:33:22;100485.06;;;25.59;82.88
71567;BME280;59403;47.456;19.120;2023-08-17T09:35:51;100485.75;;;25.98;83.38
71567;BME280;59403;47.456;19.120;2023-08-17T09:38:19;100477.50;;;26.09;80.28
71567;BME280;59403;47.456;19.120;2023-08-17T09:40:46;100475.47;;;26.21;79.14
71567;BME280;59403;47.456;19.120;2023-08-17T09:43:14;100476.28;;;26.22;77.79
71567;BME280;59403;47.456;19.120;2023-08-17T09:45:43;100474.78;;;26.36;77.03
71567;BME280;59403;47.456;19.120;2023-08-17T09:48:14;100468.66;;;26.50;75.68
71567;BME280;59403;47.456;19.120;2023-08-17T09:50:42;100465.75;;;26.62;77.51
71567;BME280;59403;47.456;19.120;2023-08-17T09:53:12;100468.63;;;26.77;74.73
71567;BME280;59403;47.456;19.120;2023-08-17T09:55:40;100471.34;;;26.77;72.63
71567;BME280;59403;47.456;19.120;2023-08-17T09:58:10;100460.19;;;26.73;73.97
71567;BME280;59403;47.456;19.120;2023-08-17T10:00:44;100459.72;;;26.86;73.75
71567;BME280;59403;47.456;19.120;2023-08-17T10:03:11;100466.38;;;26.69;72.53
71567;BME280;59403;47.456;19.120;2023-08-17T10:05:42;100464.19;;;26.39;72.82
71567;BME280;59403;47.456;19.120;2023-08-17T10:08:12;100452.00;;;26.42;74.86
71567;BME280;59403;47.456;19.120;2023-08-17T10:10:44;100459.72;;;26.23;72.43
71567;BME280;59403;47.456;19.120;2023-08-17T10:13:14;100460.13;;;26.37;74.69
71567;BME280;59403;47.456;19.120;2023-08-17T10:15:47;100463.19;;;26.45;74.77
71567;BME280;59403;47.456;19.120;2023-08-17T10:18:23;100461.25;;;26.41;74.91
71567;BME280;59403;47.456;19.120;2023-08-17T10:21:00;100454.25;;;26.50;74.25
71567;BME280;59403;47.456;19.120;2023-08-17T10:23:31;100452.59;;;26.17;71.80
71567;BME280;59403;47.456;19.120;2023-08-17T10:26:00;100456.38;;;26.11;73.15
71567;BME280;59403;47.456;19.120;2023-08-17T10:28:28;100462.19;;;26.25;73.63
71567;BME280;59403;47.456;19.120;2023-08-17T10:30:57;100462.62;;;26.17;76.20
71567;BME280;59403;47.456;19.120;2023-08-17T10:33:25;100458.50;;;26.09;73.66
71567;BME280;59403;47.456;19.120;2023-08-17T10:35:52;100463.16;;;26.14;76.58
71567;BME280;59403;47.456;19.120;2023-08-17T10:38:23;100456.63;;;26.10;73.88
71567;BME280;59403;47.456;19.120;2023-08-17T10:41:08;100461.06;;;26.21;75.10
71567;BME280;59403;47.456;19.120;2023-08-17T10:43:54;100458.88;;;26.18;74.28
71567;BME280;59403;47.456;19.120;2023-08-17T10:46:25;100453.56;;;26.33;75.10
71567;BME280;59403;47.456;19.120;2023-08-17T10:49:01;100455.22;;;26.34;76.83
71567;BME280;59403;47.456;19.120;2023-08-17T10:51:28;100453.41;;;26.44;79.14
71567;BME280;59403;47.456;19.120;2023-08-17T10:53:58;100453.75;;;26.53;77.66
71567;BME280;59403;47.456;19.120;2023-08-17T10:56:28;100454.97;;;26.67;75.59
71567;BME280;59403;47.456;19.120;2023-08-17T10:58:59;100450.13;;;26.74;74.21
71567;BME280;59403;47.456;19.120;2023-08-17T11:01:34;100451.75;;;26.75;74.12
71567;BME280;59403;47.456;19.120;2023-08-17T11:04:12;100454.72;;;26.68;74.29
71567;BME280;59403;47.456;19.120;2023-08-17T11:06:42;100449.53;;;26.67;73.40
71567;BME280;59403;47.456;19.120;2023-08-17T11:09:09;100453.25;;;26.61;72.78
71567;BME280;59403;47.456;19.120;2023-08-17T11:11:38;100449.72;;;26.60;73.28
71567;BME280;59403;47.456;19.120;2023-08-17T11:14:05;100455.62;;;26.52;77.23
71567;BME280;59403;47.456;19.120;2023-08-17T11:16:32;100445.94;;;26.61;75.22
71567;BME280;59403;47.456;19.120;2023-08-17T11:19:00;100444.53;;;26.59;74.77
71567;BME280;59403;47.456;19.120;2023-08-17T11:21:27;100450.91;;;26.69;74.48
71567;BME280;59403;47.456;19.120;2023-08-17T11:23:56;100446.03;;;26.71;74.62
71567;BME280;59403;47.456;19.120;2023-08-17T11:26:23;100444.94;;;26.72;73.52
71567;BME280;59403;47.456;19.120;2023-08-17T11:28:53;100445.97;;;26.66;73.46
71567;BME280;59403;47.456;19.120;2023-08-17T11:31:20;100447.00;;;26.60;73.09
71567;BME280;59403;47.456;19.120;2023-08-17T11:33:46;100445.00;;;26.46;72.18
71567;BME280;59403;47.456;19.120;2023-08-17T11:36:13;100446.53;;;26.37;73.39
71567;BME280;59403;47.456;19.120;2023-08-17T11:38:42;100444.63;;;26.32;72.70
71567;BME280;59403;47.456;19.120;2023-08-17T11:41:10;100445.19;;;26.39;74.03
71567;BME280;59403;47.456;19.120;2023-08-17T11:43:37;100444.13;;;26.40;72.78
71567;BME280;59403;47.456;19.120;2023-08-17T11:46:05;100444.44;;;26.44;72.99
71567;BME280;59403;47.456;19.120;2023-08-17T11:48:32;100449.25;;;26.37;74.93
71567;BME280;59403;47.456;19.120;2023-08-17T11:50:59;100444.13;;;26.40;75.09
71567;BME280;59403;47.456;19.120;2023-08-17T11:53:33;100445.56;;;26.48;74.50
71567;BME280;59403;47.456;19.120;2023-08-17T11:56:00;100449.88;;;26.44;75.59
71567;BME280;59403;47.456;19.120;2023-08-17T11:58:40;100443.06;;;26.46;74.82
71567;BME280;59403;47.456;19.120;2023-08-17T12:01:10;100447.41;;;26.42;74.99
71567;BME280;59403;47.456;19.120;2023-08-17T12:03:38;100438.22;;;26.48;75.13
71567;BME280;59403;47.456;19.120;2023-08-17T12:06:06;100436.87;;;26.51;74.07
71567;BME280;59403;47.456;19.120;2023-08-17T12:08:33;100435.53;;;26.53;74.83
71567;BME280;59403;47.456;19.120;2023-08-17T12:11:00;100429.59;;;26.56;73.94
71567;BME280;59403;47.456;19.120;2023-08-17T12:13:32;100432.66;;;26.65;74.07
71567;BME280;59403;47.456;19.120;2023-08-17T12:15:59;100423.94;;;26.63;76.69
71567;BME280;59403;47.456;19.120;2023-08-17T12:18:27;100427.84;;;26.72;75.92
71567;BME280;59403;47.456;19.120;2023-08-17T12:20:54;100428.91;;;26.71;73.91
71567;BME280;59403;47.456;19.120;2023-08-17T12:23:21;100421.16;;;26.90;74.02
71567;BME280;59403;47.456;19.120;2023-08-17T12:25:52;100424.78;;;27.05;73.07
71567;BME280;59403;47.456;19.120;2023-08-17T12:28:20;100422.84;;;27.06;71.46
71567;BME280;59403;47.456;19.120;2023-08-17T12:30:47;100420.31;;;27.31;71.45
71567;BME280;59403;47.456;19.120;2023-08-17T12:33:14;100414.44;;;27.64;72.48
71567;BME280;59403;47.456;19.120;2023-08-17T12:35:42;100416.91;;;27.90;70.24
71567;BME280;59403;47.456;19.120;2023-08-17T12:38:09;100412.00;;;27.72;69.46
71567;BME280;59403;47.456;19.120;2023-08-17T12:40:36;100405.28;;;28.05;67.54
71567;BME280;59403;47.456;19.120;2023-08-17T12:43:03;100406.66;;;28.28;67.60
71567;BME280;59403;47.456;19.120;2023-08-17T12:45:30;100404.44;;;28.50;66.92
71567;BME280;59403;47.456;19.120;2023-08-17T12:47:57;100406.37;;;28.49;66.74
71567;BME280;59403;47.456;19.120;2023-08-17T12:50:24;100396.56;;;28.58;66.70
71567;BME280;59403;47.456;19.120;2023-08-17T12:52:52;100399.84;;;28.55;64.62